sensor_id;sensor_type;location;lat;lon;timestamp;P1;durP1;ratioP1;P2;durP2;ratioP2
57303;SDS011;43150;50.986;18.208;2023-04-03T00:01:28;6.20;;;2.50;;
57303;SDS011;43150;50.986;18.208;2023-04-03T00:03:56;8.00;;;2.10;;
57303;SDS011;43150;50.986;18.208;2023-04-03T00:06:22;5.20;;;2.50;;
57303;SDS011;43150;50.986;18.208;2023-04-03T00:08:48;6.60;;;2.80;;
57303;SDS011;43150;50.986;18.208;2023-04-03T00:11:13;6.80;;;2.30;;
57303;SDS011;43150;50.986;18.208;2023-04-03T00:13:40;4.10;;;1.40;;
57303;SDS011;43150;50.986;18.208;2023-04-03T00:16:07;4.00;;;1.80;;
57303;SDS011;43150;50.986;18.208;2023-04-03T00:18:33;4.50;;;1.90;;
57303;SDS011;43150;50.986;18.208;2023-04-03T00:20:58;4.20;;;1.90;;
57303;SDS011;43150;50.986;18.208;2023-04-03T00:23:24;4.30;;;1.90;;
57303;SDS011;43150;50.986;18.208;2023-04-03T00:25:50;7.60;;;1.30;;
57303;SDS011;43150;50.986;18.208;2023-04-03T00:28:16;5.30;;;1.80;;
57303;SDS011;43150;50.986;18.208;2023-04-03T00:30:42;7.40;;;2.40;;
57303;SDS011;43150;50.986;18.208;2023-04-03T00:33:08;8.10;;;2.50;;
57303;SDS011;43150;50.986;18.208;2023-04-03T00:35:35;8.20;;;2.20;;
57303;SDS011;43150;50.986;18.208;2023-04-03T00:38:01;6.70;;;2.10;;
57303;SDS011;43150;50.986;18.208;2023-04-03T00:40:27;6.00;;;2.20;;
57303;SDS011;43150;50.986;18.208;2023-04-03T00:42:56;6.80;;;2.00;;
57303;SDS011;43150;50.986;18.208;2023-04-03T00:45:27;4.70;;;1.90;;
57303;SDS011;43150;50.986;18.208;2023-04-03T00:47:54;5.60;;;1.90;;
57303;SDS011;43150;50.986;18.208;2023-04-03T00:50:20;3.90;;;1.20;;
57303;SDS011;43150;50.986;18.208;2023-04-03T00:52:46;6.00;;;2.00;;
57303;SDS011;43150;50.986;18.208;2023-04-03T00:55:14;6.40;;;2.40;;
57303;SDS011;43150;50.986;18.208;2023-04-03T00:57:40;13.50;;;4.70;;
57303;SDS011;43150;50.986;18.208;2023-04-03T01:00:07;6.30;;;1.80;;
57303;SDS011;43150;50.986;18.208;2023-04-03T01:02:44;4.70;;;2.20;;
57303;SDS011;43150;50.986;18.208;2023-04-03T01:05:10;6.90;;;1.80;;
57303;SDS011;43150;50.986;18.208;2023-04-03T01:07:37;6.70;;;2.30;;
57303;SDS011;43150;50.986;18.208;2023-04-03T01:10:04;8.50;;;2.40;;
57303;SDS011;43150;50.986;18.208;2023-04-03T01:12:34;5.90;;;2.60;;
57303;SDS011;43150;50.986;18.208;2023-04-03T01:15:05;6.70;;;2.80;;
57303;SDS011;43150;50.986;18.208;2023-04-03T01:22:33;11.40;;;3.20;;
57303;SDS011;43150;50.986;18.208;2023-04-03T01:25:03;9.20;;;4.00;;
57303;SDS011;43150;50.986;18.208;2023-04-03T01:27:29;6.80;;;2.60;;
57303;SDS011;43150;50.986;18.208;2023-04-03T01:29:54;7.30;;;2.60;;
57303;SDS011;43150;50.986;18.208;2023-04-03T01:32:20;8.00;;;3.10;;
57303;SDS011;43150;50.986;18.208;2023-04-03T01:34:46;10.00;;;2.50;;
57303;SDS011;43150;50.986;18.208;2023-04-03T01:37:12;9.30;;;3.00;;
57303;SDS011;43150;50.986;18.208;2023-04-03T01:39:38;7.90;;;3.70;;
57303;SDS011;43150;50.986;18.208;2023-04-03T01:42:03;6.50;;;2.20;;
57303;SDS011;43150;50.986;18.208;2023-04-03T01:44:29;5.30;;;2.40;;
57303;SDS011;43150;50.986;18.208;2023-04-03T01:46:55;6.20;;;2.30;;
57303;SDS011;43150;50.986;18.208;2023-04-03T01:49:21;9.40;;;2.90;;
57303;SDS011;43150;50.986;18.208;2023-04-03T01:51:46;5.80;;;3.00;;
57303;SDS011;43150;50.986;18.208;2023-04-03T01:54:12;8.20;;;3.10;;
57303;SDS011;43150;50.986;18.208;2023-04-03T01:56:37;10.00;;;3.20;;
57303;SDS011;43150;50.986;18.208;2023-04-03T01:59:07;6.10;;;2.20;;
57303;SDS011;43150;50.986;18.208;2023-04-03T02:01:32;4.30;;;2.40;;
57303;SDS011;43150;50.986;18.208;2023-04-03T02:03:58;5.70;;;2.40;;
57303;SDS011;43150;50.986;18.208;2023-04-03T02:06:23;7.60;;;3.10;;
57303;SDS011;43150;50.986;18.208;2023-04-03T02:08:50;5.90;;;2.60;;
57303;SDS011;43150;50.986;18.208;2023-04-03T02:11:16;9.00;;;3.00;;
57303;SDS011;43150;50.986;18.208;2023-04-03T02:13:42;7.60;;;3.10;;
57303;SDS011;43150;50.986;18.208;2023-04-03T02:16:08;7.00;;;3.00;;
57303;SDS011;43150;50.986;18.208;2023-04-03T02:18:35;5.00;;;2.40;;
57303;SDS011;43150;50.986;18.208;2023-04-03T02:21:01;9.40;;;3.40;;
57303;SDS011;43150;50.986;18.208;2023-04-03T02:23:26;8.50;;;3.70;;
57303;SDS011;43150;50.986;18.208;2023-04-03T02:25:52;8.00;;;3.30;;
57303;SDS011;43150;50.986;18.208;2023-04-03T02:28:18;8.60;;;2.40;;
57303;SDS011;43150;50.986;18.208;2023-04-03T02:30:44;9.30;;;3.30;;
57303;SDS011;43150;50.986;18.208;2023-04-03T02:33:11;7.00;;;2.80;;
57303;SDS011;43150;50.986;18.208;2023-04-03T02:35:39;5.60;;;2.80;;
57303;SDS011;43150;50.986;18.208;2023-04-03T02:38:05;8.50;;;3.50;;
57303;SDS011;43150;50.986;18.208;2023-04-03T02:40:31;9.10;;;2.90;;
57303;SDS011;43150;50.986;18.208;2023-04-03T02:42:56;12.00;;;3.80;;
57303;SDS011;43150;50.986;18.208;2023-04-03T02:45:22;9.70;;;3.50;;
57303;SDS011;43150;50.986;18.208;2023-04-03T02:47:48;8.30;;;3.70;;
57303;SDS011;43150;50.986;18.208;2023-04-03T02:50:14;7.10;;;2.60;;
57303;SDS011;43150;50.986;18.208;2023-04-03T02:52:39;5.70;;;2.60;;
57303;SDS011;43150;50.986;18.208;2023-04-03T02:55:05;6.40;;;3.20;;
57303;SDS011;43150;50.986;18.208;2023-04-03T02:57:31;10.00;;;5.30;;
57303;SDS011;43150;50.986;18.208;2023-04-03T02:59:56;11.90;;;6.10;;
57303;SDS011;43150;50.986;18.208;2023-04-03T03:02:22;10.70;;;5.60;;
57303;SDS011;43150;50.986;18.208;2023-04-03T03:04:48;7.90;;;5.60;;
57303;SDS011;43150;50.986;18.208;2023-04-03T03:07:14;10.90;;;6.80;;
57303;SDS011;43150;50.986;18.208;2023-04-03T03:09:40;13.90;;;5.90;;
57303;SDS011;43150;50.986;18.208;2023-04-03T03:12:06;13.30;;;7.40;;
57303;SDS011;43150;50.986;18.208;2023-04-03T03:14:33;8.50;;;5.40;;
57303;SDS011;43150;50.986;18.208;2023-04-03T03:16:58;9.90;;;6.40;;
57303;SDS011;43150;50.986;18.208;2023-04-03T03:19:24;7.50;;;4.40;;
57303;SDS011;43150;50.986;18.208;2023-04-03T03:21:50;9.70;;;4.70;;
57303;SDS011;43150;50.986;18.208;2023-04-03T03:24:16;8.20;;;3.60;;
57303;SDS011;43150;50.986;18.208;2023-04-03T03:26:42;9.00;;;5.50;;
57303;SDS011;43150;50.986;18.208;2023-04-03T03:29:08;9.10;;;4.40;;
57303;SDS011;43150;50.986;18.208;2023-04-03T03:31:34;10.50;;;5.10;;
57303;SDS011;43150;50.986;18.208;2023-04-03T03:34:00;10.20;;;4.30;;
57303;SDS011;43150;50.986;18.208;2023-04-03T03:36:25;8.30;;;3.70;;
57303;SDS011;43150;50.986;18.208;2023-04-03T03:38:51;8.90;;;3.70;;
57303;SDS011;43150;50.986;18.208;2023-04-03T03:41:20;9.80;;;4.20;;
57303;SDS011;43150;50.986;18.208;2023-04-03T03:43:45;8.10;;;4.10;;
57303;SDS011;43150;50.986;18.208;2023-04-03T03:46:11;7.80;;;4.10;;
57303;SDS011;43150;50.986;18.208;2023-04-03T03:48:37;8.40;;;4.40;;
57303;SDS011;43150;50.986;18.208;2023-04-03T03:51:02;10.20;;;4.60;;
57303;SDS011;43150;50.986;18.208;2023-04-03T03:53:28;8.70;;;4.60;;
57303;SDS011;43150;50.986;18.208;2023-04-03T03:55:53;8.20;;;4.30;;
57303;SDS011;43150;50.986;18.208;2023-04-03T03:58:19;9.50;;;4.60;;
57303;SDS011;43150;50.986;18.208;2023-04-03T04:00:45;8.10;;;4.10;;
57303;SDS011;43150;50.986;18.208;2023-04-03T04:03:12;5.90;;;3.10;;
57303;SDS011;43150;50.986;18.208;2023-04-03T04:05:37;12.30;;;4.50;;
57303;SDS011;43150;50.986;18.208;2023-04-03T04:08:03;8.90;;;4.50;;
57303;SDS011;43150;50.986;18.208;2023-04-03T04:10:28;6.80;;;4.00;;
57303;SDS011;43150;50.986;18.208;2023-04-03T04:12:54;9.10;;;4.50;;
57303;SDS011;43150;50.986;18.208;2023-04-03T04:15:19;8.80;;;4.00;;
57303;SDS011;43150;50.986;18.208;2023-04-03T04:17:47;7.70;;;4.70;;
57303;SDS011;43150;50.986;18.208;2023-04-03T04:20:13;8.30;;;4.90;;
57303;SDS011;43150;50.986;18.208;2023-04-03T04:22:39;11.10;;;3.90;;
57303;SDS011;43150;50.986;18.208;2023-04-03T04:25:04;7.20;;;3.70;;
57303;SDS011;43150;50.986;18.208;2023-04-03T04:27:30;9.90;;;4.30;;
57303;SDS011;43150;50.986;18.208;2023-04-03T04:29:56;9.60;;;4.30;;
57303;SDS011;43150;50.986;18.208;2023-04-03T04:32:21;10.90;;;5.00;;
57303;SDS011;43150;50.986;18.208;2023-04-03T04:34:47;10.50;;;4.80;;
57303;SDS011;43150;50.986;18.208;2023-04-03T04:37:12;9.90;;;4.50;;
57303;SDS011;43150;50.986;18.208;2023-04-03T04:39:38;10.10;;;4.60;;
57303;SDS011;43150;50.986;18.208;2023-04-03T04:42:05;9.00;;;4.30;;
57303;SDS011;43150;50.986;18.208;2023-04-03T04:44:32;25.50;;;9.50;;
57303;SDS011;43150;50.986;18.208;2023-04-03T04:46:57;10.40;;;4.40;;
57303;SDS011;43150;50.986;18.208;2023-04-03T04:49:23;8.70;;;4.10;;
57303;SDS011;43150;50.986;18.208;2023-04-03T04:51:49;8.70;;;3.80;;
57303;SDS011;43150;50.986;18.208;2023-04-03T04:54:17;7.90;;;4.10;;
57303;SDS011;43150;50.986;18.208;2023-04-03T04:56:42;6.50;;;3.80;;
57303;SDS011;43150;50.986;18.208;2023-04-03T04:59:08;8.10;;;4.00;;
57303;SDS011;43150;50.986;18.208;2023-04-03T05:01:33;7.00;;;3.20;;
57303;SDS011;43150;50.986;18.208;2023-04-03T05:03:58;8.30;;;4.00;;
57303;SDS011;43150;50.986;18.208;2023-04-03T05:06:24;9.70;;;3.20;;
57303;SDS011;43150;50.986;18.208;2023-04-03T05:08:50;8.70;;;4.40;;
57303;SDS011;43150;50.986;18.208;2023-04-03T05:11:16;10.10;;;4.40;;
57303;SDS011;43150;50.986;18.208;2023-04-03T05:13:41;8.50;;;4.00;;
57303;SDS011;43150;50.986;18.208;2023-04-03T05:16:07;10.60;;;4.60;;
57303;SDS011;43150;50.986;18.208;2023-04-03T05:18:32;5.60;;;2.70;;
57303;SDS011;43150;50.986;18.208;2023-04-03T05:20:58;8.60;;;4.10;;
57303;SDS011;43150;50.986;18.208;2023-04-03T05:23:23;10.20;;;4.80;;
57303;SDS011;43150;50.986;18.208;2023-04-03T05:25:49;8.60;;;4.20;;
57303;SDS011;43150;50.986;18.208;2023-04-03T05:28:15;10.40;;;3.80;;
57303;SDS011;43150;50.986;18.208;2023-04-03T05:30:41;12.20;;;4.10;;
57303;SDS011;43150;50.986;18.208;2023-04-03T05:33:07;12.60;;;4.80;;
57303;SDS011;43150;50.986;18.208;2023-04-03T05:35:35;19.40;;;6.90;;
57303;SDS011;43150;50.986;18.208;2023-04-03T05:38:01;15.30;;;5.50;;
57303;SDS011;43150;50.986;18.208;2023-04-03T05:40:26;13.70;;;5.40;;
57303;SDS011;43150;50.986;18.208;2023-04-03T05:42:52;17.00;;;6.10;;
57303;SDS011;43150;50.986;18.208;2023-04-03T05:45:18;14.50;;;5.40;;
57303;SDS011;43150;50.986;18.208;2023-04-03T05:47:44;10.30;;;4.10;;
57303;SDS011;43150;50.986;18.208;2023-04-03T05:50:10;9.80;;;4.60;;
57303;SDS011;43150;50.986;18.208;2023-04-03T05:52:36;14.70;;;5.30;;
57303;SDS011;43150;50.986;18.208;2023-04-03T05:55:02;10.20;;;4.70;;
57303;SDS011;43150;50.986;18.208;2023-04-03T05:57:28;12.40;;;4.70;;
57303;SDS011;43150;50.986;18.208;2023-04-03T05:59:53;12.10;;;4.20;;
57303;SDS011;43150;50.986;18.208;2023-04-03T06:02:19;12.10;;;4.60;;
57303;SDS011;43150;50.986;18.208;2023-04-03T06:04:46;7.80;;;3.40;;
57303;SDS011;43150;50.986;18.208;2023-04-03T06:07:13;9.90;;;3.90;;
57303;SDS011;43150;50.986;18.208;2023-04-03T06:09:40;10.60;;;3.60;;
57303;SDS011;43150;50.986;18.208;2023-04-03T06:12:06;9.50;;;3.70;;
57303;SDS011;43150;50.986;18.208;2023-04-03T06:14:31;8.00;;;4.40;;
57303;SDS011;43150;50.986;18.208;2023-04-03T06:16:57;12.90;;;5.00;;
57303;SDS011;43150;50.986;18.208;2023-04-03T06:19:23;4.80;;;2.80;;
57303;SDS011;43150;50.986;18.208;2023-04-03T06:21:49;12.20;;;4.10;;
57303;SDS011;43150;50.986;18.208;2023-04-03T06:24:15;8.40;;;3.90;;
57303;SDS011;43150;50.986;18.208;2023-04-03T06:26:42;8.20;;;3.60;;
57303;SDS011;43150;50.986;18.208;2023-04-03T06:29:08;8.50;;;4.20;;
57303;SDS011;43150;50.986;18.208;2023-04-03T06:31:33;7.90;;;3.60;;
57303;SDS011;43150;50.986;18.208;2023-04-03T06:33:59;7.30;;;3.80;;
57303;SDS011;43150;50.986;18.208;2023-04-03T06:36:26;6.50;;;3.80;;
57303;SDS011;43150;50.986;18.208;2023-04-03T06:38:51;6.90;;;3.40;;
57303;SDS011;43150;50.986;18.208;2023-04-03T06:41:17;6.60;;;2.70;;
57303;SDS011;43150;50.986;18.208;2023-04-03T06:43:43;10.00;;;3.80;;
57303;SDS011;43150;50.986;18.208;2023-04-03T06:46:16;7.50;;;3.50;;
57303;SDS011;43150;50.986;18.208;2023-04-03T06:51:11;6.80;;;4.20;;
57303;SDS011;43150;50.986;18.208;2023-04-03T06:53:37;7.10;;;3.10;;
57303;SDS011;43150;50.986;18.208;2023-04-03T06:56:03;7.10;;;3.30;;
57303;SDS011;43150;50.986;18.208;2023-04-03T06:58:30;6.50;;;3.60;;
57303;SDS011;43150;50.986;18.208;2023-04-03T07:00:55;5.50;;;2.90;;
57303;SDS011;43150;50.986;18.208;2023-04-03T07:03:21;6.00;;;3.00;;
57303;SDS011;43150;50.986;18.208;2023-04-03T07:05:47;6.90;;;3.30;;
57303;SDS011;43150;50.986;18.208;2023-04-03T07:08:13;6.50;;;3.20;;
57303;SDS011;43150;50.986;18.208;2023-04-03T07:10:38;6.40;;;3.40;;
57303;SDS011;43150;50.986;18.208;2023-04-03T07:13:04;7.00;;;3.20;;
57303;SDS011;43150;50.986;18.208;2023-04-03T07:15:29;7.10;;;3.60;;
57303;SDS011;43150;50.986;18.208;2023-04-03T07:17:55;6.90;;;4.30;;
57303;SDS011;43150;50.986;18.208;2023-04-03T07:20:21;6.00;;;3.40;;
57303;SDS011;43150;50.986;18.208;2023-04-03T07:22:46;5.90;;;3.10;;
57303;SDS011;43150;50.986;18.208;2023-04-03T07:25:12;6.40;;;3.30;;
57303;SDS011;43150;50.986;18.208;2023-04-03T07:27:38;7.10;;;3.60;;
57303;SDS011;43150;50.986;18.208;2023-04-03T07:30:04;7.70;;;3.20;;
57303;SDS011;43150;50.986;18.208;2023-04-03T07:32:31;5.70;;;3.00;;
57303;SDS011;43150;50.986;18.208;2023-04-03T07:34:57;6.60;;;3.50;;
57303;SDS011;43150;50.986;18.208;2023-04-03T07:37:23;5.50;;;2.90;;
57303;SDS011;43150;50.986;18.208;2023-04-03T07:39:48;6.30;;;2.60;;
57303;SDS011;43150;50.986;18.208;2023-04-03T07:42:14;3.80;;;2.50;;
57303;SDS011;43150;50.986;18.208;2023-04-03T07:44:42;6.00;;;2.80;;
57303;SDS011;43150;50.986;18.208;2023-04-03T07:47:08;6.60;;;2.80;;
57303;SDS011;43150;50.986;18.208;2023-04-03T07:49:34;5.80;;;2.90;;
57303;SDS011;43150;50.986;18.208;2023-04-03T07:52:03;5.30;;;3.30;;
57303;SDS011;43150;50.986;18.208;2023-04-03T07:54:29;7.20;;;3.00;;
57303;SDS011;43150;50.986;18.208;2023-04-03T07:56:55;7.40;;;3.00;;
57303;SDS011;43150;50.986;18.208;2023-04-03T07:59:22;5.70;;;2.70;;
57303;SDS011;43150;50.986;18.208;2023-04-03T08:01:48;6.00;;;2.40;;
57303;SDS011;43150;50.986;18.208;2023-04-03T08:04:13;5.60;;;2.00;;
57303;SDS011;43150;50.986;18.208;2023-04-03T08:06:39;5.80;;;2.90;;
57303;SDS011;43150;50.986;18.208;2023-04-03T08:09:05;5.80;;;2.90;;
57303;SDS011;43150;50.986;18.208;2023-04-03T08:11:30;6.20;;;3.50;;
57303;SDS011;43150;50.986;18.208;2023-04-03T08:13:56;3.40;;;2.00;;
57303;SDS011;43150;50.986;18.208;2023-04-03T08:16:23;4.60;;;2.10;;
57303;SDS011;43150;50.986;18.208;2023-04-03T08:18:51;4.40;;;1.80;;
57303;SDS011;43150;50.986;18.208;2023-04-03T08:21:16;4.70;;;2.80;;
57303;SDS011;43150;50.986;18.208;2023-04-03T08:23:42;4.10;;;2.00;;
57303;SDS011;43150;50.986;18.208;2023-04-03T08:26:12;6.70;;;2.20;;
57303;SDS011;43150;50.986;18.208;2023-04-03T08:28:38;4.50;;;1.90;;
57303;SDS011;43150;50.986;18.208;2023-04-03T08:31:08;2.70;;;1.70;;
57303;SDS011;43150;50.986;18.208;2023-04-03T08:33:36;4.30;;;1.70;;
57303;SDS011;43150;50.986;18.208;2023-04-03T08:36:06;4.60;;;2.10;;
57303;SDS011;43150;50.986;18.208;2023-04-03T08:38:32;5.80;;;2.20;;
57303;SDS011;43150;50.986;18.208;2023-04-03T08:41:13;3.80;;;1.70;;
57303;SDS011;43150;50.986;18.208;2023-04-03T08:46:28;3.60;;;1.60;;
57303;SDS011;43150;50.986;18.208;2023-04-03T08:51:22;5.40;;;1.50;;
57303;SDS011;43150;50.986;18.208;2023-04-03T08:56:21;3.50;;;1.40;;
57303;SDS011;43150;50.986;18.208;2023-04-03T08:58:58;4.10;;;1.90;;
57303;SDS011;43150;50.986;18.208;2023-04-03T09:04:21;1.70;;;0.90;;
57303;SDS011;43150;50.986;18.208;2023-04-03T09:07:13;2.40;;;1.40;;
57303;SDS011;43150;50.986;18.208;2023-04-03T09:09:38;3.70;;;1.60;;
57303;SDS011;43150;50.986;18.208;2023-04-03T09:12:12;2.80;;;1.40;;
57303;SDS011;43150;50.986;18.208;2023-04-03T09:17:32;5.00;;;1.90;;
57303;SDS011;43150;50.986;18.208;2023-04-03T09:22:51;2.10;;;1.20;;
57303;SDS011;43150;50.986;18.208;2023-04-03T09:25:25;3.10;;;1.50;;
57303;SDS011;43150;50.986;18.208;2023-04-03T09:27:52;2.40;;;1.40;;
57303;SDS011;43150;50.986;18.208;2023-04-03T09:30:19;4.40;;;1.80;;
57303;SDS011;43150;50.986;18.208;2023-04-03T09:32:46;3.50;;;1.50;;
57303;SDS011;43150;50.986;18.208;2023-04-03T09:35:16;4.00;;;1.50;;
57303;SDS011;43150;50.986;18.208;2023-04-03T09:37:45;4.60;;;1.60;;
57303;SDS011;43150;50.986;18.208;2023-04-03T09:40:33;2.20;;;1.20;;
57303;SDS011;43150;50.986;18.208;2023-04-03T09:43:00;5.00;;;1.60;;
57303;SDS011;43150;50.986;18.208;2023-04-03T09:45:28;4.00;;;1.70;;
57303;SDS011;43150;50.986;18.208;2023-04-03T09:50:30;2.60;;;1.30;;
57303;SDS011;43150;50.986;18.208;2023-04-03T09:52:56;4.00;;;1.60;;
57303;SDS011;43150;50.986;18.208;2023-04-03T09:55:23;3.30;;;1.50;;
57303;SDS011;43150;50.986;18.208;2023-04-03T09:57:52;2.90;;;1.70;;
57303;SDS011;43150;50.986;18.208;2023-04-03T10:02:54;4.50;;;1.30;;
57303;SDS011;43150;50.986;18.208;2023-04-03T10:05:25;3.20;;;1.60;;
57303;SDS011;43150;50.986;18.208;2023-04-03T10:07:51;3.60;;;1.30;;
57303;SDS011;43150;50.986;18.208;2023-04-03T10:10:19;3.10;;;2.00;;
57303;SDS011;43150;50.986;18.208;2023-04-03T10:12:46;4.60;;;2.00;;
57303;SDS011;43150;50.986;18.208;2023-04-03T10:15:12;3.90;;;2.10;;
57303;SDS011;43150;50.986;18.208;2023-04-03T10:27:59;4.90;;;2.20;;
57303;SDS011;43150;50.986;18.208;2023-04-03T10:38:54;3.80;;;1.90;;
57303;SDS011;43150;50.986;18.208;2023-04-03T10:41:03;3.90;;;1.70;;
57303;SDS011;43150;50.986;18.208;2023-04-03T10:46:17;3.20;;;2.00;;
57303;SDS011;43150;50.986;18.208;2023-04-03T10:48:59;2.90;;;2.10;;
57303;SDS011;43150;50.986;18.208;2023-04-03T10:56:33;3.80;;;2.00;;
57303;SDS011;43150;50.986;18.208;2023-04-03T11:01:35;3.20;;;2.30;;
57303;SDS011;43150;50.986;18.208;2023-04-03T11:04:04;2.90;;;1.80;;
57303;SDS011;43150;50.986;18.208;2023-04-03T11:07:14;3.50;;;2.20;;
57303;SDS011;43150;50.986;18.208;2023-04-03T11:09:22;8.00;;;2.50;;
57303;SDS011;43150;50.986;18.208;2023-04-03T11:11:50;2.90;;;2.10;;
57303;SDS011;43150;50.986;18.208;2023-04-03T11:16:51;5.20;;;2.10;;
57303;SDS011;43150;50.986;18.208;2023-04-03T11:19:22;3.00;;;1.70;;
57303;SDS011;43150;50.986;18.208;2023-04-03T11:21:56;5.60;;;1.80;;
57303;SDS011;43150;50.986;18.208;2023-04-03T11:24:27;3.10;;;1.80;;
57303;SDS011;43150;50.986;18.208;2023-04-03T11:26:54;3.90;;;2.40;;
57303;SDS011;43150;50.986;18.208;2023-04-03T11:29:29;3.70;;;1.80;;
57303;SDS011;43150;50.986;18.208;2023-04-03T11:32:13;6.80;;;2.30;;
57303;SDS011;43150;50.986;18.208;2023-04-03T11:34:47;4.70;;;2.80;;
57303;SDS011;43150;50.986;18.208;2023-04-03T11:42:34;5.70;;;3.20;;
57303;SDS011;43150;50.986;18.208;2023-04-03T11:47:49;5.50;;;2.60;;
57303;SDS011;43150;50.986;18.208;2023-04-03T11:53:03;3.50;;;1.90;;
57303;SDS011;43150;50.986;18.208;2023-04-03T11:58:17;2.80;;;1.90;;
57303;SDS011;43150;50.986;18.208;2023-04-03T12:13:32;4.20;;;2.50;;
57303;SDS011;43150;50.986;18.208;2023-04-03T12:15:57;5.40;;;2.60;;
57303;SDS011;43150;50.986;18.208;2023-04-03T12:18:59;3.60;;;2.40;;
57303;SDS011;43150;50.986;18.208;2023-04-03T12:21:21;5.00;;;2.40;;
57303;SDS011;43150;50.986;18.208;2023-04-03T12:26:40;2.70;;;1.80;;
57303;SDS011;43150;50.986;18.208;2023-04-03T12:29:13;2.80;;;1.60;;
57303;SDS011;43150;50.986;18.208;2023-04-03T12:31:54;3.60;;;2.60;;
57303;SDS011;43150;50.986;18.208;2023-04-03T12:34:26;3.70;;;2.10;;
57303;SDS011;43150;50.986;18.208;2023-04-03T12:39:36;4.60;;;2.00;;
57303;SDS011;43150;50.986;18.208;2023-04-03T12:42:18;3.10;;;2.00;;
57303;SDS011;43150;50.986;18.208;2023-04-03T12:44:53;4.30;;;1.80;;
57303;SDS011;43150;50.986;18.208;2023-04-03T12:47:24;2.30;;;1.70;;
57303;SDS011;43150;50.986;18.208;2023-04-03T12:49:52;3.50;;;1.60;;
57303;SDS011;43150;50.986;18.208;2023-04-03T12:52:32;2.70;;;1.70;;
57303;SDS011;43150;50.986;18.208;2023-04-03T12:54:59;2.70;;;1.80;;
57303;SDS011;43150;50.986;18.208;2023-04-03T12:57:29;4.30;;;1.80;;
57303;SDS011;43150;50.986;18.208;2023-04-03T12:59:58;3.00;;;1.80;;
57303;SDS011;43150;50.986;18.208;2023-04-03T13:04:53;4.60;;;1.80;;
57303;SDS011;43150;50.986;18.208;2023-04-03T13:07:27;5.20;;;2.10;;
57303;SDS011;43150;50.986;18.208;2023-04-03T13:18:02;3.30;;;2.00;;
57303;SDS011;43150;50.986;18.208;2023-04-03T13:20:32;4.80;;;2.10;;
57303;SDS011;43150;50.986;18.208;2023-04-03T13:23:01;5.40;;;2.80;;
57303;SDS011;43150;50.986;18.208;2023-04-03T13:25:30;3.90;;;1.90;;
57303;SDS011;43150;50.986;18.208;2023-04-03T13:27:56;2.70;;;1.80;;
57303;SDS011;43150;50.986;18.208;2023-04-03T13:30:32;4.90;;;1.90;;
57303;SDS011;43150;50.986;18.208;2023-04-03T13:33:00;4.00;;;2.20;;
57303;SDS011;43150;50.986;18.208;2023-04-03T13:35:37;7.10;;;3.00;;
57303;SDS011;43150;50.986;18.208;2023-04-03T13:38:26;3.70;;;2.10;;
57303;SDS011;43150;50.986;18.208;2023-04-03T13:40:53;5.00;;;2.40;;
57303;SDS011;43150;50.986;18.208;2023-04-03T13:43:21;6.40;;;2.80;;
57303;SDS011;43150;50.986;18.208;2023-04-03T13:48:21;4.70;;;2.50;;
57303;SDS011;43150;50.986;18.208;2023-04-03T13:53:17;6.50;;;2.90;;
57303;SDS011;43150;50.986;18.208;2023-04-03T13:56:00;4.70;;;2.00;;
57303;SDS011;43150;50.986;18.208;2023-04-03T13:58:30;3.10;;;1.90;;
57303;SDS011;43150;50.986;18.208;2023-04-03T14:04:00;3.50;;;1.60;;
57303;SDS011;43150;50.986;18.208;2023-04-03T14:06:26;3.50;;;1.50;;
57303;SDS011;43150;50.986;18.208;2023-04-03T14:08:52;8.30;;;3.40;;
57303;SDS011;43150;50.986;18.208;2023-04-03T14:11:19;1.80;;;1.30;;
57303;SDS011;43150;50.986;18.208;2023-04-03T14:13:47;3.40;;;1.30;;
57303;SDS011;43150;50.986;18.208;2023-04-03T14:16:13;3.60;;;2.10;;
57303;SDS011;43150;50.986;18.208;2023-04-03T14:18:39;4.40;;;2.20;;
57303;SDS011;43150;50.986;18.208;2023-04-03T14:21:13;4.00;;;2.20;;
57303;SDS011;43150;50.986;18.208;2023-04-03T14:23:39;4.40;;;1.70;;
57303;SDS011;43150;50.986;18.208;2023-04-03T14:26:05;3.50;;;1.50;;
57303;SDS011;43150;50.986;18.208;2023-04-03T14:28:33;3.20;;;1.50;;
57303;SDS011;43150;50.986;18.208;2023-04-03T14:30:59;3.60;;;1.80;;
57303;SDS011;43150;50.986;18.208;2023-04-03T14:33:24;2.30;;;1.20;;
57303;SDS011;43150;50.986;18.208;2023-04-03T14:35:52;4.00;;;1.60;;
57303;SDS011;43150;50.986;18.208;2023-04-03T14:38:23;2.80;;;0.90;;
57303;SDS011;43150;50.986;18.208;2023-04-03T14:40:49;2.60;;;1.10;;
57303;SDS011;43150;50.986;18.208;2023-04-03T14:43:15;5.10;;;1.60;;
57303;SDS011;43150;50.986;18.208;2023-04-03T14:45:41;5.10;;;1.90;;
57303;SDS011;43150;50.986;18.208;2023-04-03T14:48:09;2.30;;;1.50;;
57303;SDS011;43150;50.986;18.208;2023-04-03T14:50:36;5.10;;;1.50;;
57303;SDS011;43150;50.986;18.208;2023-04-03T14:53:01;3.10;;;1.30;;
57303;SDS011;43150;50.986;18.208;2023-04-03T14:55:27;3.30;;;1.30;;
57303;SDS011;43150;50.986;18.208;2023-04-03T14:57:53;3.30;;;1.40;;
57303;SDS011;43150;50.986;18.208;2023-04-03T15:00:20;3.40;;;1.70;;
57303;SDS011;43150;50.986;18.208;2023-04-03T15:02:46;3.20;;;1.50;;
57303;SDS011;43150;50.986;18.208;2023-04-03T15:05:13;2.20;;;1.40;;
57303;SDS011;43150;50.986;18.208;2023-04-03T15:07:44;3.90;;;1.50;;
57303;SDS011;43150;50.986;18.208;2023-04-03T15:12:39;2.80;;;1.70;;
57303;SDS011;43150;50.986;18.208;2023-04-03T15:15:05;4.30;;;1.40;;
57303;SDS011;43150;50.986;18.208;2023-04-03T15:17:31;2.70;;;1.70;;
57303;SDS011;43150;50.986;18.208;2023-04-03T15:19:57;2.70;;;1.80;;
57303;SDS011;43150;50.986;18.208;2023-04-03T15:22:23;3.20;;;1.60;;
57303;SDS011;43150;50.986;18.208;2023-04-03T15:24:55;3.10;;;1.90;;
57303;SDS011;43150;50.986;18.208;2023-04-03T15:27:23;2.30;;;1.60;;
57303;SDS011;43150;50.986;18.208;2023-04-03T15:29:49;3.50;;;2.10;;
57303;SDS011;43150;50.986;18.208;2023-04-03T15:32:15;4.60;;;2.60;;
57303;SDS011;43150;50.986;18.208;2023-04-03T15:34:40;3.00;;;1.70;;
57303;SDS011;43150;50.986;18.208;2023-04-03T15:37:06;4.30;;;1.80;;
57303;SDS011;43150;50.986;18.208;2023-04-03T15:39:34;2.70;;;1.50;;
57303;SDS011;43150;50.986;18.208;2023-04-03T15:42:00;5.20;;;2.20;;
57303;SDS011;43150;50.986;18.208;2023-04-03T15:44:31;2.10;;;1.40;;
57303;SDS011;43150;50.986;18.208;2023-04-03T15:46:57;3.30;;;1.50;;
57303;SDS011;43150;50.986;18.208;2023-04-03T15:49:23;2.10;;;1.40;;
57303;SDS011;43150;50.986;18.208;2023-04-03T15:51:49;5.20;;;1.90;;
57303;SDS011;43150;50.986;18.208;2023-04-03T15:54:15;4.10;;;2.10;;
57303;SDS011;43150;50.986;18.208;2023-04-03T15:56:40;3.60;;;1.60;;
57303;SDS011;43150;50.986;18.208;2023-04-03T15:59:06;4.50;;;1.70;;
57303;SDS011;43150;50.986;18.208;2023-04-03T16:01:34;2.00;;;1.30;;
57303;SDS011;43150;50.986;18.208;2023-04-03T16:04:01;4.60;;;2.00;;
57303;SDS011;43150;50.986;18.208;2023-04-03T16:06:26;4.60;;;2.00;;
57303;SDS011;43150;50.986;18.208;2023-04-03T16:08:54;4.10;;;1.80;;
57303;SDS011;43150;50.986;18.208;2023-04-03T16:11:23;4.80;;;1.60;;
57303;SDS011;43150;50.986;18.208;2023-04-03T16:13:50;4.40;;;2.20;;
57303;SDS011;43150;50.986;18.208;2023-04-03T16:16:15;3.10;;;1.60;;
57303;SDS011;43150;50.986;18.208;2023-04-03T16:18:40;4.50;;;2.10;;
57303;SDS011;43150;50.986;18.208;2023-04-03T16:21:06;6.70;;;2.60;;
57303;SDS011;43150;50.986;18.208;2023-04-03T16:23:33;7.20;;;2.50;;
57303;SDS011;43150;50.986;18.208;2023-04-03T16:25:59;7.90;;;3.20;;
57303;SDS011;43150;50.986;18.208;2023-04-03T16:28:24;5.00;;;2.10;;